createdAt,value
2022-11-14T00:00:00.999Z,4.00
2022-11-14T00:02:27.482Z,3.97
2022-11-14T00:04:54.156Z,3.95
2022-11-14T00:07:20.611Z,3.96
2022-11-14T00:09:47.097Z,3.94
2022-11-14T00:12:13.518Z,3.86
2022-11-14T00:14:39.900Z,3.81
2022-11-14T00:17:06.289Z,3.84
2022-11-14T00:19:32.883Z,3.90
2022-11-14T00:22:00.364Z,3.95
2022-11-14T00:24:26.778Z,3.97
2022-11-14T00:26:53.155Z,3.91
2022-11-14T00:29:19.532Z,3.86
2022-11-14T00:31:45.900Z,3.85
2022-11-14T00:34:12.342Z,3.86
2022-11-14T00:36:38.736Z,3.86
2022-11-14T00:39:05.101Z,3.80
2022-11-14T00:41:31.495Z,3.77
2022-11-14T00:43:57.886Z,3.73
2022-11-14T00:46:24.281Z,3.72
2022-11-14T00:48:50.723Z,3.70
2022-11-14T00:51:17.094Z,3.73
2022-11-14T00:53:43.470Z,3.78
2022-11-14T00:56:10.152Z,3.76
2022-11-14T00:58:36.510Z,3.77
2022-11-14T01:01:02.961Z,3.80
2022-11-14T01:03:29.425Z,3.81
2022-11-14T01:05:55.865Z,3.69
2022-11-14T01:08:22.296Z,3.72
2022-11-14T01:10:50.449Z,3.72
2022-11-14T01:13:17.906Z,3.70
2022-11-14T01:15:45.357Z,3.69
2022-11-14T01:18:14.016Z,3.72
2022-11-14T01:20:41.122Z,3.71
2022-11-14T01:23:08.088Z,3.65
2022-11-14T01:25:35.573Z,3.69
2022-11-14T01:28:01.991Z,3.68
2022-11-14T01:30:28.372Z,3.72
2022-11-14T01:32:54.756Z,3.73
2022-11-14T01:35:21.153Z,3.78
2022-11-14T01:37:47.531Z,3.78
2022-11-14T01:40:13.902Z,3.67
2022-11-14T01:42:40.308Z,3.64
2022-11-14T01:45:25.327Z,3.64
2022-11-14T01:47:51.771Z,3.62
2022-11-14T01:50:18.208Z,3.63
2022-11-14T01:52:45.869Z,3.66
2022-11-14T01:55:12.269Z,3.65
2022-11-14T01:57:40.946Z,3.65
2022-11-14T02:00:09.120Z,3.62
2022-11-14T02:02:36.073Z,3.56
2022-11-14T02:05:13.119Z,3.52
2022-11-14T02:07:40.741Z,3.53
2022-11-14T02:10:09.216Z,3.52
2022-11-14T02:12:36.246Z,3.50
2022-11-14T02:15:03.201Z,3.49
2022-11-14T02:17:31.062Z,3.52
2022-11-14T02:20:05.377Z,3.51
2022-11-14T02:22:32.221Z,3.48
2022-11-14T02:24:58.589Z,3.48
2022-11-14T02:27:25.018Z,3.42
2022-11-14T02:29:51.409Z,3.44
2022-11-14T02:32:17.809Z,3.49
2022-11-14T02:34:44.195Z,3.50
2022-11-14T02:37:10.628Z,3.50
2022-11-14T02:39:37.191Z,3.45
2022-11-14T02:42:03.636Z,3.48
2022-11-14T02:44:30.005Z,3.51
2022-11-14T02:46:56.437Z,3.52
2022-11-14T02:49:22.815Z,3.50
2022-11-14T02:51:49.197Z,3.45
2022-11-14T02:54:15.612Z,3.36
2022-11-14T02:56:42.140Z,3.37
2022-11-14T02:59:08.539Z,3.45
2022-11-14T03:01:35.024Z,3.43
2022-11-14T03:04:01.573Z,3.45
2022-11-14T03:06:27.935Z,3.43
2022-11-14T03:08:54.296Z,3.43
2022-11-14T03:11:20.796Z,3.41
2022-11-14T03:13:47.184Z,3.43
2022-11-14T03:16:14.223Z,3.43
2022-11-14T03:18:40.909Z,3.43
2022-11-14T03:21:11.925Z,3.35
2022-11-14T03:23:38.395Z,3.31
2022-11-14T03:26:06.292Z,3.34
2022-11-14T03:28:32.964Z,3.34
2022-11-14T03:30:59.372Z,3.33
2022-11-14T03:33:25.798Z,3.32
2022-11-14T03:35:52.630Z,3.38
2022-11-14T03:38:19.277Z,3.37
2022-11-14T03:40:45.665Z,3.34
2022-11-14T03:43:12.540Z,3.38
2022-11-14T03:45:39.121Z,3.32
2022-11-14T03:48:06.211Z,3.31
2022-11-14T03:50:32.819Z,3.29
2022-11-14T03:52:59.201Z,3.26
2022-11-14T03:55:25.615Z,3.22
2022-11-14T03:57:52.046Z,3.20
2022-11-14T04:00:18.566Z,3.18
2022-11-14T04:02:44.959Z,3.22
2022-11-14T04:05:11.347Z,3.24
2022-11-14T04:07:37.723Z,3.24
2022-11-14T04:10:04.298Z,3.27
2022-11-14T04:12:30.669Z,3.27
2022-11-14T04:14:57.159Z,3.25
2022-11-14T04:17:23.612Z,3.21
2022-11-14T04:19:50.487Z,3.19
2022-11-14T04:22:16.885Z,3.13
2022-11-14T04:24:43.257Z,3.10
2022-11-14T04:27:09.740Z,3.15
2022-11-14T04:29:36.415Z,3.21
2022-11-14T04:32:02.799Z,3.24
2022-11-14T04:34:29.169Z,3.18
2022-11-14T04:36:55.575Z,3.15
2022-11-14T04:39:21.964Z,3.00
2022-11-14T04:41:48.351Z,2.99
2022-11-14T04:44:14.753Z,3.01
2022-11-14T04:46:41.123Z,3.00
2022-11-14T04:49:07.532Z,2.98
2022-11-14T04:51:33.901Z,2.98
2022-11-14T04:54:00.293Z,2.97
2022-11-14T04:56:26.728Z,2.93
2022-11-14T04:58:53.142Z,2.93
2022-11-14T05:01:19.582Z,2.98
2022-11-14T05:03:46.064Z,3.04
2022-11-14T05:06:12.455Z,2.86
2022-11-14T05:08:38.899Z,2.77
2022-11-14T05:11:05.347Z,2.68
2022-11-14T05:13:31.783Z,2.63
2022-11-14T05:15:59.298Z,2.55
2022-11-14T05:18:25.713Z,2.49
2022-11-14T05:20:52.102Z,2.56
2022-11-14T05:23:20.381Z,2.53
2022-11-14T05:25:46.983Z,2.54
2022-11-14T05:28:13.904Z,2.30
2022-11-14T05:30:40.268Z,2.21
2022-11-14T05:33:06.664Z,2.09
2022-11-14T05:35:33.070Z,2.08
2022-11-14T05:38:00.758Z,1.96
2022-11-14T05:40:27.141Z,1.86
2022-11-14T05:42:55.089Z,2.01
2022-11-14T05:45:21.503Z,2.14
2022-11-14T05:47:47.869Z,2.16
2022-11-14T05:50:14.296Z,2.16
2022-11-14T05:52:40.690Z,2.17
2022-11-14T05:55:07.328Z,2.20
2022-11-14T05:57:33.722Z,2.22
2022-11-14T06:00:00.228Z,2.17
2022-11-14T06:02:26.635Z,2.13
2022-11-14T06:04:53.062Z,2.12
2022-11-14T06:07:20.534Z,2.22
2022-11-14T06:09:47.062Z,2.25
2022-11-14T06:12:13.487Z,2.11
2022-11-14T06:14:39.845Z,2.09
2022-11-14T06:17:06.229Z,2.15
2022-11-14T06:19:32.590Z,2.15
2022-11-14T06:21:59.030Z,2.14
2022-11-14T06:24:25.498Z,2.18
2022-11-14T06:26:51.854Z,2.30
2022-11-14T06:29:18.260Z,2.38
2022-11-14T06:31:44.654Z,2.47
2022-11-14T06:34:12.018Z,2.51
2022-11-14T06:36:38.603Z,2.57
2022-11-14T06:39:04.990Z,2.56
2022-11-14T06:41:31.434Z,2.50
2022-11-14T06:43:57.791Z,2.56
2022-11-14T06:46:24.213Z,2.57
2022-11-14T06:48:51.091Z,2.59
2022-11-14T06:51:17.608Z,2.62
2022-11-14T06:53:44.621Z,2.68
2022-11-14T06:56:12.306Z,2.72
2022-11-14T06:58:40.691Z,2.72
2022-11-14T07:01:08.336Z,2.73
2022-11-14T07:03:34.981Z,2.75
2022-11-14T07:06:01.961Z,2.73
2022-11-14T07:08:28.715Z,2.74
2022-11-14T07:11:00.479Z,2.74
2022-11-14T07:13:26.927Z,2.77
2022-11-14T07:15:53.912Z,2.79
2022-11-14T07:18:20.453Z,2.74
2022-11-14T07:20:47.457Z,2.53
2022-11-14T07:23:14.849Z,2.25
2022-11-14T07:25:41.489Z,2.19
2022-11-14T07:28:08.176Z,2.24
2022-11-14T07:30:34.957Z,2.26
2022-11-14T07:33:01.589Z,2.12
2022-11-14T07:35:27.977Z,1.98
2022-11-14T07:38:00.631Z,2.06
2022-11-14T07:40:27.041Z,2.19
2022-11-14T07:42:57.495Z,2.08
2022-11-14T07:45:23.900Z,2.06
2022-11-14T07:47:50.270Z,2.09
2022-11-14T07:50:20.356Z,2.17
2022-11-14T07:52:50.850Z,2.25
2022-11-14T07:55:17.234Z,2.36
2022-11-14T07:57:48.815Z,2.43
2022-11-14T08:00:17.050Z,2.37
2022-11-14T08:02:43.449Z,2.32
2022-11-14T08:05:09.790Z,2.41
2022-11-14T08:07:36.187Z,2.52
2022-11-14T08:10:02.770Z,2.60
2022-11-14T08:12:29.157Z,2.51
2022-11-14T08:14:55.522Z,2.53
2022-11-14T08:17:22.836Z,2.59
2022-11-14T08:19:49.258Z,2.65
2022-11-14T08:22:15.620Z,2.71
2022-11-14T08:24:42.011Z,2.75
2022-11-14T08:27:08.391Z,2.73
2022-11-14T08:29:34.799Z,2.77
2022-11-14T08:32:01.150Z,2.81
2022-11-14T08:34:29.173Z,2.86
2022-11-14T08:36:57.158Z,2.83
2022-11-14T08:39:23.808Z,2.63
2022-11-14T08:41:50.210Z,2.60
2022-11-14T08:44:16.582Z,2.63
2022-11-14T08:46:42.948Z,2.62
2022-11-14T08:49:09.371Z,2.56
2022-11-14T08:51:36.601Z,2.46
2022-11-14T08:54:03.392Z,2.46
2022-11-14T08:56:29.798Z,2.49
2022-11-14T08:58:56.182Z,2.61
2022-11-14T09:01:22.568Z,2.70
2022-11-14T09:03:49.089Z,2.53
2022-11-14T09:06:15.686Z,2.39
2022-11-14T09:08:42.107Z,2.36
2022-11-14T09:11:10.114Z,2.44
2022-11-14T09:13:36.725Z,2.49
2022-11-14T09:16:03.144Z,2.56
2022-11-14T09:18:30.161Z,2.60
2022-11-14T09:21:00.953Z,2.64
2022-11-14T09:23:27.505Z,2.63
2022-11-14T09:25:54.963Z,2.69
2022-11-14T09:28:21.401Z,2.80
2022-11-14T09:30:47.791Z,2.86
2022-11-14T09:33:14.361Z,2.85
2022-11-14T09:35:41.303Z,2.92
2022-11-14T09:38:09.909Z,2.95
2022-11-14T09:40:47.046Z,2.92
2022-11-14T09:43:36.632Z,2.91
2022-11-14T09:46:03.475Z,2.98
2022-11-14T09:48:31.905Z,3.03
2022-11-14T09:51:04.426Z,2.99
2022-11-14T09:53:33.169Z,3.02
2022-11-14T09:55:59.773Z,3.15
2022-11-14T09:58:26.676Z,3.21
2022-11-14T10:01:22.505Z,3.27
2022-11-14T10:03:55.116Z,3.36
2022-11-14T10:06:24.642Z,3.39
2022-11-14T10:09:04.721Z,3.39
2022-11-14T10:11:46.861Z,3.47
2022-11-14T10:14:16.280Z,3.48
2022-11-14T10:16:42.724Z,3.53
2022-11-14T10:19:14.879Z,3.60
2022-11-14T10:21:54.708Z,3.68
2022-11-14T10:24:31.358Z,3.72
2022-11-14T10:27:04.748Z,3.75
2022-11-14T10:29:43.376Z,3.78
2022-11-14T10:32:12.580Z,3.81
2022-11-14T10:34:45.211Z,3.84
2022-11-14T10:37:17.697Z,3.91
2022-11-14T10:39:46.724Z,3.94
2022-11-14T10:42:16.172Z,4.05
2022-11-14T10:44:47.245Z,4.17
2022-11-14T10:47:16.011Z,4.26
2022-11-14T10:49:44.450Z,4.28
2022-11-14T10:52:14.466Z,4.36
2022-11-14T10:54:43.891Z,4.45
2022-11-14T10:57:20.825Z,4.56
2022-11-14T10:59:47.528Z,4.66
2022-11-14T11:02:14.277Z,4.70
2022-11-14T11:04:41.701Z,4.82
2022-11-14T11:07:08.130Z,4.89
2022-11-14T11:09:57.934Z,5.00
2022-11-14T11:12:24.289Z,5.10
2022-11-14T11:15:08.203Z,5.20
2022-11-14T11:17:38.783Z,5.30
2022-11-14T11:20:27.066Z,5.42
2022-11-14T11:23:25.841Z,5.58
2022-11-14T11:26:05.975Z,5.70
2022-11-14T11:28:33.810Z,5.81
2022-11-14T11:31:00.778Z,5.94
2022-11-14T11:33:28.750Z,6.07
2022-11-14T11:35:57.593Z,6.19
2022-11-14T11:38:26.114Z,6.30
2022-11-14T11:40:54.635Z,6.41
2022-11-14T11:43:43.260Z,6.51
2022-11-14T11:46:12.958Z,6.59
2022-11-14T11:48:40.069Z,6.65
2022-11-14T11:51:10.601Z,6.79
2022-11-14T11:53:39.801Z,6.93
2022-11-14T11:56:17.882Z,7.04
2022-11-14T11:58:46.851Z,7.15
2022-11-14T12:01:14.262Z,7.29
2022-11-14T12:03:46.897Z,7.38
2022-11-14T12:06:24.685Z,7.42
2022-11-14T12:08:57.095Z,7.49
2022-11-14T12:11:26.223Z,7.56
2022-11-14T12:14:04.670Z,7.64
2022-11-14T12:16:57.101Z,7.73
2022-11-14T12:19:23.580Z,7.82
2022-11-14T12:21:54.229Z,7.89
2022-11-14T12:24:34.193Z,7.98
2022-11-14T12:27:19.251Z,8.07
2022-11-14T12:29:48.884Z,8.16
2022-11-14T12:32:21.504Z,8.23
2022-11-14T12:34:49.106Z,8.30
2022-11-14T12:37:18.806Z,8.38
2022-11-14T12:39:55.073Z,8.48
2022-11-14T12:42:21.981Z,8.63
2022-11-14T12:44:48.525Z,8.75
2022-11-14T12:47:16.729Z,8.86
2022-11-14T12:49:49.775Z,8.97
2022-11-14T12:52:34.594Z,9.06
2022-11-14T12:55:00.972Z,9.16
2022-11-14T12:57:47.591Z,9.21
2022-11-14T13:00:14.141Z,9.24
2022-11-14T13:02:52.675Z,9.27
2022-11-14T13:05:23.536Z,9.33
2022-11-14T13:07:50.011Z,9.40
2022-11-14T13:10:30.640Z,9.45
2022-11-14T13:13:18.020Z,9.48
2022-11-14T13:16:07.418Z,9.52
2022-11-14T13:18:52.358Z,9.57
2022-11-14T13:21:45.066Z,9.60
2022-11-14T13:24:18.857Z,9.62
2022-11-14T13:26:52.795Z,9.63
2022-11-14T13:29:37.945Z,9.63
2022-11-14T13:32:04.504Z,9.63
2022-11-14T13:34:43.045Z,9.62
2022-11-14T13:37:42.056Z,9.58
2022-11-14T13:40:20.790Z,9.56
2022-11-14T13:42:47.144Z,9.52
2022-11-14T13:45:32.054Z,9.48
2022-11-14T13:47:58.393Z,9.46
2022-11-14T13:50:28.383Z,9.41
2022-11-14T13:52:55.223Z,9.35
2022-11-14T13:55:22.728Z,9.26
2022-11-14T13:58:04.589Z,9.19
2022-11-14T14:00:46.083Z,9.10
2022-11-14T14:03:31.916Z,9.02
2022-11-14T14:06:06.037Z,8.96
2022-11-14T14:08:32.544Z,8.87
2022-11-14T14:11:01.972Z,8.79
2022-11-14T14:13:52.426Z,8.73
2022-11-14T14:16:21.398Z,8.61
2022-11-14T14:19:06.128Z,8.49
2022-11-14T14:21:38.310Z,8.42
2022-11-14T14:24:04.765Z,8.35
2022-11-14T14:26:46.204Z,8.27
2022-11-14T14:29:22.824Z,8.20
2022-11-14T14:31:49.176Z,8.13
2022-11-14T14:34:42.026Z,8.03
2022-11-14T14:37:17.584Z,7.95
2022-11-14T14:39:55.538Z,7.88
2022-11-14T14:42:21.944Z,7.83
2022-11-14T14:44:48.711Z,7.77
2022-11-14T14:47:36.485Z,7.71
2022-11-14T14:50:04.356Z,7.65
2022-11-14T14:52:32.098Z,7.59
2022-11-14T14:54:58.744Z,7.56
2022-11-14T14:57:25.522Z,7.50
2022-11-14T15:00:02.438Z,7.45
2022-11-14T15:02:29.512Z,7.38
2022-11-14T15:04:57.217Z,7.31
2022-11-14T15:07:24.995Z,7.24
2022-11-14T15:09:55.246Z,7.19
2022-11-14T15:12:23.700Z,7.10
2022-11-14T15:14:50.798Z,7.03
2022-11-14T15:17:17.372Z,6.94
2022-11-14T15:19:45.120Z,6.86
2022-11-14T15:22:14.562Z,6.77
2022-11-14T15:24:41.160Z,6.68
2022-11-14T15:27:18.068Z,6.63
2022-11-14T15:29:48.441Z,6.54
2022-11-14T15:32:18.670Z,6.46
2022-11-14T15:35:04.993Z,6.37
2022-11-14T15:37:33.187Z,6.29
2022-11-14T15:40:28.682Z,6.23
2022-11-14T15:42:55.362Z,6.16
2022-11-14T15:45:25.968Z,6.07
2022-11-14T15:47:59.343Z,6.01
2022-11-14T15:50:35.271Z,5.97
2022-11-14T15:53:06.408Z,5.91
2022-11-14T15:55:32.851Z,5.86
2022-11-14T15:58:21.478Z,5.82
2022-11-14T16:00:47.457Z,5.77
2022-11-14T16:03:18.482Z,5.69
2022-11-14T16:05:46.174Z,5.63
2022-11-14T16:08:13.012Z,5.60
2022-11-14T16:10:39.461Z,5.54
2022-11-14T16:13:06.276Z,5.50
2022-11-14T16:15:32.662Z,5.43
2022-11-14T16:17:59.054Z,5.37
2022-11-14T16:20:26.878Z,5.33
2022-11-14T16:22:55.063Z,5.30
2022-11-14T16:25:26.428Z,5.29
2022-11-14T16:27:53.066Z,5.27
2022-11-14T16:30:20.401Z,5.21
2022-11-14T16:32:48.231Z,5.21
2022-11-14T16:35:16.019Z,5.19
2022-11-14T16:37:42.639Z,5.15
2022-11-14T16:40:26.919Z,5.09
2022-11-14T16:43:03.420Z,5.01
2022-11-14T16:45:29.844Z,4.95
2022-11-14T16:47:56.239Z,4.92
2022-11-14T16:50:22.606Z,4.87
2022-11-14T16:52:49.283Z,4.82
2022-11-14T16:55:15.807Z,4.80
2022-11-14T16:57:42.282Z,4.78
2022-11-14T17:00:10.747Z,4.76
2022-11-14T17:02:37.227Z,4.71
2022-11-14T17:05:03.817Z,4.70
2022-11-14T17:07:32.732Z,4.69
2022-11-14T17:10:00.480Z,4.66
2022-11-14T17:12:27.370Z,4.65
2022-11-14T17:14:54.726Z,4.64
2022-11-14T17:17:21.290Z,4.59
2022-11-14T17:19:47.717Z,4.51
2022-11-14T17:22:14.797Z,4.44
2022-11-14T17:24:42.061Z,4.41
2022-11-14T17:27:08.711Z,4.41
2022-11-14T17:29:35.179Z,4.36
2022-11-14T17:32:01.832Z,4.31
2022-11-14T17:34:28.247Z,4.30
2022-11-14T17:36:54.600Z,4.27
2022-11-14T17:39:21.057Z,4.26
2022-11-14T17:41:47.510Z,4.22
2022-11-14T17:44:14.154Z,4.16
2022-11-14T17:46:40.600Z,4.09
2022-11-14T17:49:07.132Z,4.02
2022-11-14T17:51:33.555Z,3.97
2022-11-14T17:53:59.940Z,3.94
2022-11-14T17:56:26.822Z,3.93
2022-11-14T17:58:53.667Z,3.90
2022-11-14T18:01:24.343Z,3.87
2022-11-14T18:03:50.969Z,3.80
2022-11-14T18:06:19.303Z,3.76
2022-11-14T18:08:46.154Z,3.72
2022-11-14T18:11:13.446Z,3.73
2022-11-14T18:13:40.528Z,3.70
2022-11-14T18:16:08.890Z,3.67
2022-11-14T18:18:36.088Z,3.65
2022-11-14T18:21:09.505Z,3.61
2022-11-14T18:23:36.098Z,3.58
2022-11-14T18:26:08.449Z,3.55
2022-11-14T18:28:34.886Z,3.53
2022-11-14T18:31:03.414Z,3.54
2022-11-14T18:33:29.920Z,3.52
2022-11-14T18:35:57.246Z,3.51
2022-11-14T18:38:23.726Z,3.50
2022-11-14T18:40:56.885Z,3.47
2022-11-14T18:43:23.877Z,3.42
2022-11-14T18:45:50.284Z,3.43
2022-11-14T18:48:16.720Z,3.47
2022-11-14T18:50:43.082Z,3.48
2022-11-14T18:53:10.211Z,3.46
2022-11-14T18:55:40.372Z,3.43
2022-11-14T18:58:06.960Z,3.47
2022-11-14T19:00:33.454Z,3.51
2022-11-14T19:03:04.804Z,3.55
2022-11-14T19:05:35.134Z,3.54
2022-11-14T19:08:01.555Z,3.49
2022-11-14T19:10:28.021Z,3.50
2022-11-14T19:12:54.399Z,3.52
2022-11-14T19:15:20.834Z,3.56
2022-11-14T19:17:47.539Z,3.56
2022-11-14T19:20:14.917Z,3.57
2022-11-14T19:22:41.409Z,3.60
2022-11-14T19:25:09.119Z,3.61
2022-11-14T19:27:35.689Z,3.65
2022-11-14T19:30:02.139Z,3.70
2022-11-14T19:32:28.531Z,3.73
2022-11-14T19:34:54.933Z,3.75
2022-11-14T19:37:21.302Z,3.76
2022-11-14T19:39:47.757Z,3.79
2022-11-14T19:42:14.183Z,3.79
2022-11-14T19:44:40.818Z,3.75
2022-11-14T19:47:07.191Z,3.68
2022-11-14T19:49:33.644Z,3.69
2022-11-14T19:52:00.020Z,3.75
2022-11-14T19:54:26.391Z,3.75
2022-11-14T19:56:52.806Z,3.79
2022-11-14T19:59:24.223Z,3.78
2022-11-14T20:01:55.413Z,3.81
2022-11-14T20:04:22.250Z,3.79
2022-11-14T20:06:48.678Z,3.76
2022-11-14T20:09:16.521Z,3.72
2022-11-14T20:11:42.938Z,3.70
2022-11-14T20:14:10.741Z,3.70
2022-11-14T20:16:37.316Z,3.73
2022-11-14T20:19:03.791Z,3.70
2022-11-14T20:21:31.482Z,3.72
2022-11-14T20:23:58.436Z,3.66
2022-11-14T20:26:25.257Z,3.71
2022-11-14T20:28:53.891Z,3.78
2022-11-14T20:31:24.653Z,3.82
2022-11-14T20:33:51.732Z,3.87
2022-11-14T20:36:19.821Z,3.90
2022-11-14T20:38:47.448Z,3.92
2022-11-14T20:41:14.232Z,3.92
2022-11-14T20:43:40.753Z,3.90
2022-11-14T20:46:09.532Z,3.89
2022-11-14T20:48:35.935Z,3.85
2022-11-14T20:51:02.650Z,3.86
2022-11-14T20:53:29.920Z,3.87
2022-11-14T20:55:56.496Z,3.91
2022-11-14T20:58:22.931Z,3.89
2022-11-14T21:00:49.785Z,3.80
2022-11-14T21:03:16.630Z,3.81
2022-11-14T21:05:43.000Z,3.82
2022-11-14T21:08:09.390Z,3.84
2022-11-14T21:10:47.882Z,3.85
2022-11-14T21:13:34.265Z,3.83
2022-11-14T21:16:01.529Z,3.84
2022-11-14T21:18:28.500Z,3.84
2022-11-14T21:21:03.083Z,3.82
2022-11-14T21:23:29.688Z,3.79
2022-11-14T21:26:06.896Z,3.79
2022-11-14T21:28:34.387Z,3.79
2022-11-14T21:31:01.104Z,3.77
2022-11-14T21:33:28.892Z,3.66
2022-11-14T21:35:57.079Z,3.61
2022-11-14T21:38:23.895Z,3.70
2022-11-14T21:40:54.358Z,3.77
2022-11-14T21:43:21.247Z,3.76
2022-11-14T21:45:58.747Z,3.82
2022-11-14T21:48:26.184Z,3.83
2022-11-14T21:50:52.701Z,3.82
2022-11-14T21:53:19.117Z,3.79
2022-11-14T21:55:45.945Z,3.81
2022-11-14T21:58:13.077Z,3.84
2022-11-14T22:00:40.207Z,3.85
2022-11-14T22:03:25.058Z,3.84
2022-11-14T22:05:57.862Z,3.88
2022-11-14T22:08:24.389Z,3.91
2022-11-14T22:10:50.796Z,3.94
2022-11-14T22:13:17.170Z,3.98
2022-11-14T22:15:43.601Z,3.96
2022-11-14T22:18:10.053Z,3.94
2022-11-14T22:20:36.447Z,3.95
2022-11-14T22:23:02.866Z,3.93
2022-11-14T22:25:29.254Z,3.88
2022-11-14T22:27:55.627Z,3.84
2022-11-14T22:30:22.000Z,3.86
2022-11-14T22:32:48.392Z,3.86
2022-11-14T22:35:14.825Z,3.84
2022-11-14T22:37:41.194Z,3.83
2022-11-14T22:40:08.004Z,3.84
2022-11-14T22:42:34.465Z,3.86
2022-11-14T22:45:00.898Z,3.89
2022-11-14T22:47:27.317Z,3.95
2022-11-14T22:49:53.709Z,4.01
2022-11-14T22:52:20.075Z,4.03
2022-11-14T22:54:46.464Z,4.04
2022-11-14T22:57:12.861Z,4.06
2022-11-14T22:59:39.274Z,4.08
2022-11-14T23:02:05.658Z,4.13
2022-11-14T23:04:32.048Z,4.12
2022-11-14T23:06:58.499Z,4.15
2022-11-14T23:09:24.930Z,4.16
2022-11-14T23:11:51.290Z,4.18
2022-11-14T23:14:17.832Z,4.16
2022-11-14T23:16:44.207Z,4.13
2022-11-14T23:19:10.586Z,4.12
2022-11-14T23:21:37.987Z,4.12
2022-11-14T23:24:06.450Z,4.13
2022-11-14T23:26:33.043Z,4.14
2022-11-14T23:28:59.573Z,4.13
2022-11-14T23:31:26.022Z,4.12
2022-11-14T23:33:53.509Z,4.08
2022-11-14T23:36:19.872Z,4.07
2022-11-14T23:38:46.260Z,4.07
2022-11-14T23:41:20.329Z,4.07
2022-11-14T23:43:47.275Z,4.09
2022-11-14T23:46:13.894Z,4.09
2022-11-14T23:48:40.317Z,4.14
2022-11-14T23:51:07.084Z,4.15
2022-11-14T23:53:33.725Z,4.13
2022-11-14T23:56:01.040Z,4.11
2022-11-14T23:58:28.283Z,4.09
